Date,TemperatureHighF,TemperatureAvgF,TemperatureLowF,DewpointHighF,DewpointAvgF,DewpointLowF,HumidityHigh,HumidityAvg,HumidityLow,PressureMaxIn,PressureMinIn,WindSpeedMaxMPH,WindSpeedAvgMPH,GustSpeedMaxMPH,PrecipitationSumIn
2013-1-1,28.6,17.5,9.7,17.4,11.4,5.9,95,78,51,30.91,30.69,37,3,37,0.00
2013-1-2,40.5,20.8,7.2,27.1,13.9,2.8,91,76,43,30.93,30.78,8,2,8,0.03
2013-1-3,40.3,22.1,9.7,28.6,16.7,6.4,89,80,52,30.82,30.73,6,2,6,0.01
2013-1-4,37.9,25.5,14.5,31.5,21.9,11.8,93,87,74,30.83,30.69,5,2,5,0.01
2013-1-5,45.9,30.0,16.5,37.0,23.2,13.8,90,77,49,30.75,30.38,7,1,7,0.10
2013-1-6,31.8,29.4,27.7,27.7,23.0,11.5,95,78,43,30.54,30.36,28,4,29,0.00
2013-1-7,44.1,31.2,16.9,34.5,25.6,14.5,94,80,55,30.72,30.54,24,3,29,0.03
2013-1-8,39.0,29.7,23.4,35.6,27.6,21.6,96,92,83,30.74,30.63,5,2,5,0.01
2013-1-9,49.3,33.8,21.7,30.6,24.8,19.4,96,73,37,30.67,30.05,21,2,21,0.00
2013-1-10,27.5,20.1,13.6,20.5,13.3,8.4,93,75,55,30.48,30.14,27,3,28,0.00
2013-1-11,24.1,19.8,11.8,14.7,11.1,5.5,86,69,48,30.54,30.46,23,2,23,0.00
2013-1-12,24.8,11.0,-0.9,12.6,2.3,-4.5,86,70,37,30.72,30.53,13,2,22,0.00
2013-1-13,23.7,9.1,-3.3,9.5,-0.0,-9.0,86,68,29,30.86,30.71,31,7,31,0.00
2013-1-14,32.7,16.4,-3.6,24.1,7.0,-7.8,89,68,41,31.04,30.85,25,6,27,0.00
2013-1-15,42.8,29.8,15.1,25.9,19.6,11.8,92,68,37,31.01,30.93,30,5,30,0.04
2013-1-16,43.5,27.9,17.1,28.0,16.6,11.7,85,65,32,31.03,30.88,15,2,15,0.00
2013-1-17,39.9,24.2,12.0,24.1,14.2,6.3,79,66,44,30.96,30.83,5,2,5,0.00
2013-1-18,37.0,23.3,10.9,27.5,15.6,5.7,80,72,55,30.92,30.81,4,2,5,0.00
2013-1-19,37.8,23.7,10.2,25.3,14.8,5.5,81,69,47,30.96,30.83,5,2,5,0.00
2013-1-20,38.5,23.6,10.6,28.2,14.9,5.0,79,69,45,30.94,30.82,5,2,5,0.00
2013-1-21,42.1,26.6,14.4,30.4,17.6,9.0,81,69,39,30.88,30.74,6,2,6,0.00
2013-1-22,43.9,28.8,17.2,34.2,22.8,13.3,85,78,52,30.80,30.60,5,2,5,0.00
2013-1-23,53.4,40.0,27.9,29.5,18.0,7.5,82,44,17,30.61,30.40,10,1,12,0.00
2013-1-24,39.9,35.6,32.5,37.6,34.2,29.5,98,95,83,30.57,30.40,4,0,4,0.16
2013-1-25,43.2,36.4,31.1,40.6,35.2,30.4,98,96,85,30.57,30.38,8,1,8,0.16
2013-1-26,45.5,35.1,29.3,34.2,28.3,22.6,98,78,51,30.39,30.16,12,1,13,0.01
2013-1-27,30.9,25.7,21.6,24.4,18.7,14.2,87,74,59,30.48,30.17,18,4,18,0.00
2013-1-28,32.7,24.1,14.2,24.6,17.2,10.2,91,75,57,30.68,30.47,18,3,19,0.00
2013-1-29,46.8,37.0,28.9,32.9,28.3,21.9,80,71,57,30.72,30.61,29,7,30,0.01
2013-1-30,48.0,32.7,25.9,35.4,27.7,21.7,92,82,59,30.78,30.69,13,2,14,0.00
2013-1-31,39.2,29.7,20.8,35.6,24.6,16.5,89,81,70,30.81,30.67,5,2,5,0.00
2013-2-1,40.5,29.2,19.6,31.8,21.1,12.2,79,71,60,30.79,30.69,4,2,4,0.00
2013-2-2,40.8,31.0,23.7,32.7,24.6,18.5,88,77,53,30.82,30.71,4,1,4,0.00
2013-2-3,48.2,32.2,21.6,35.2,24.1,17.8,89,73,40,30.72,30.57,17,2,17,0.00
2013-2-4,40.5,31.6,22.3,33.8,25.2,17.4,85,77,62,30.65,30.49,5,1,5,0.00
2013-2-5,50.5,37.2,26.6,26.1,20.5,13.5,79,53,25,30.51,30.28,14,1,14,0.00
2013-2-6,38.7,28.9,18.1,25.0,16.2,6.8,72,59,38,30.52,30.38,7,1,8,0.00
2013-2-7,36.3,29.5,19.0,26.2,12.4,-7.8,88,54,16,30.48,30.23,18,1,20,0.00
2013-2-8,27.9,21.4,13.5,18.9,13.5,9.9,89,72,53,30.42,30.21,17,2,19,0.00
2013-2-9,30.9,23.0,12.9,20.3,14.4,9.3,86,70,53,30.55,30.40,20,3,22,0.00
2013-2-10,30.9,24.7,15.1,20.3,15.2,10.9,85,68,52,30.56,30.49,27,7,28,0.00
2013-2-11,34.9,28.6,19.0,19.9,14.7,8.8,76,56,37,30.69,30.51,32,7,36,0.00
2013-2-12,40.3,28.6,18.1,31.3,19.8,11.3,78,69,52,30.81,30.68,8,2,8,0.00
2013-2-13,43.2,31.7,20.5,30.7,22.7,16.3,84,70,47,30.81,30.68,25,4,27,0.00
2013-2-14,43.5,33.3,23.7,31.3,24.7,19.8,86,72,48,30.77,30.68,27,7,27,0.00
2013-3-27,50.7,42.2,37.2,38.5,35.3,33.1,88,78,53,30.28,30.22,8,0,8,0.00
2013-3-28,55.2,40.8,32.5,38.3,34.0,29.5,96,79,42,30.45,30.26,8,0,11,0.24
2013-3-29,47.7,37.4,29.8,41.5,34.8,28.8,97,90,75,30.56,30.44,6,1,6,0.25
2013-3-30,56.7,42.3,29.8,43.3,35.9,28.4,95,79,48,30.54,30.29,9,1,9,0.00
2013-3-31,49.1,39.6,32.4,38.3,33.7,28.6,96,81,49,30.32,30.24,11,1,15,0.14
2013-4-1,47.1,37.6,31.6,36.1,32.3,28.6,96,82,60,30.48,30.30,12,1,12,0.03
2013-4-2,50.9,37.4,26.8,39.6,31.5,25.0,93,80,54,30.53,30.45,8,2,8,0.01
2013-4-3,53.1,40.3,28.6,41.7,34.4,26.6,94,80,52,30.54,30.40,9,1,9,0.00
2013-4-4,49.8,43.3,37.2,39.9,34.7,25.5,95,73,45,30.40,30.24,19,1,19,0.17
2013-4-5,52.7,42.0,32.2,36.0,30.3,24.1,95,66,39,30.40,30.32,14,1,14,0.18
2013-4-6,53.6,43.3,37.2,36.1,28.3,19.9,75,56,40,30.40,30.33,14,2,14,0.00
2013-4-7,54.1,42.7,32.2,32.5,29.5,24.4,89,61,34,30.36,29.88,18,3,25,0.00
2013-4-8,36.3,32.0,27.9,29.3,24.2,16.2,95,74,47,30.40,29.85,35,10,36,0.01
2013-4-9,44.8,36.4,28.6,26.1,19.1,11.3,73,51,28,30.61,30.40,33,12,35,0.02
2013-4-10,59.5,47.5,36.0,41.2,30.0,19.0,73,51,34,30.61,30.30,24,4,24,0.00
2013-4-11,57.2,46.0,39.9,41.9,36.5,26.1,88,70,44,30.30,30.13,22,4,22,0.00
2013-4-12,58.8,42.8,28.8,43.0,32.9,24.8,85,69,48,30.30,30.17,8,1,8,0.00
2013-4-13,60.4,50.5,39.4,36.5,30.9,23.9,77,48,29,30.21,29.96,13,1,13,0.00
2013-4-14,57.0,45.0,36.1,34.5,29.9,26.1,82,58,32,30.05,29.91,12,1,16,0.00
2013-4-15,44.8,35.7,26.2,29.8,24.6,18.1,93,66,37,30.09,29.88,27,2,27,0.00
2013-4-16,32.2,28.4,24.4,23.9,19.5,14.0,90,70,51,30.55,30.09,26,7,28,0.01
2013-4-17,39.4,31.3,23.7,22.8,15.2,9.5,86,53,30,30.72,30.54,25,8,26,0.00
2013-4-18,53.8,38.0,24.6,34.5,20.3,10.8,67,50,32,30.73,30.61,22,3,22,0.01
2013-4-19,59.9,42.2,27.0,39.7,28.5,21.7,81,61,31,30.67,30.45,8,1,8,0.00
2013-4-20,56.7,42.0,28.6,40.6,31.8,24.6,89,69,33,30.48,30.38,8,2,8,0.00
2013-4-21,66.0,45.5,30.6,45.3,35.2,25.5,82,68,41,30.47,30.33,7,1,7,0.00
2013-4-22,71.1,47.0,33.4,45.3,33.9,15.6,89,65,22,30.39,30.23,29,4,35,0.00
2013-4-23,52.3,41.6,28.6,34.0,23.1,12.9,69,49,31,30.40,30.24,24,2,27,0.00
2013-4-24,55.4,44.5,30.2,28.4,17.6,7.2,75,38,18,30.38,30.24,28,5,30,0.00
2013-4-25,63.5,43.9,28.9,41.7,28.2,16.5,67,54,34,30.46,30.29,6,1,6,0.00
2013-4-26,73.2,46.5,31.6,45.7,34.4,19.8,79,64,19,30.58,30.45,6,1,6,0.00
2013-4-27,70.5,49.3,35.2,48.7,38.5,31.3,87,68,34,30.59,30.43,8,1,9,0.00
2013-4-28,67.8,48.1,31.5,49.1,34.6,22.5,76,60,36,30.46,30.29,9,1,9,0.00
2013-4-29,70.3,52.5,37.4,47.3,39.0,33.1,87,63,30,30.32,30.08,9,1,9,0.00
2013-4-30,63.3,50.1,42.1,42.6,32.3,-1.5,84,55,15,30.31,30.00,29,5,31,0.00
2013-5-1,53.6,45.0,31.8,21.6,11.4,-1.5,45,26,15,30.69,30.31,42,9,42,0.00
2013-5-2,58.5,44.8,28.8,43.0,22.6,9.7,65,42,23,30.73,30.55,7,2,7,0.00
2013-5-3,68.4,49.6,35.1,49.6,35.6,20.8,82,61,21,30.55,30.22,15,2,16,0.00
2013-5-4,57.4,47.8,34.7,40.1,28.1,21.7,75,47,30,30.25,29.91,34,6,34,0.00
2013-5-5,58.3,46.4,36.9,43.7,36.8,28.9,91,71,42,30.05,29.94,25,3,25,0.03
2013-5-6,45.7,38.9,32.7,41.4,36.6,31.6,97,92,75,30.27,30.04,20,2,20,0.11
2013-5-7,45.9,39.7,35.4,41.7,37.2,33.8,96,91,74,30.35,30.27,9,1,9,0.24
2013-5-8,52.2,44.2,38.5,44.1,40.1,37.4,97,86,66,30.41,30.33,9,2,9,0.35
2013-5-9,68.9,48.1,36.3,49.6,42.2,34.7,95,81,46,30.48,30.36,18,2,20,0.00
2013-5-10,63.7,51.9,38.5,50.4,42.8,36.1,91,72,42,30.51,30.41,7,1,20,0.00
2013-5-11,73.8,53.9,40.1,52.3,43.6,36.9,88,70,37,30.53,30.42,6,1,7,0.00
2013-5-12,74.5,56.3,41.0,48.9,40.5,35.2,80,58,29,30.50,30.35,7,1,8,0.00
2013-5-13,75.2,59.8,41.0,46.6,35.6,30.2,78,45,22,30.38,30.21,11,1,12,0.00
2013-5-14,69.1,54.0,41.2,48.9,39.3,32.4,80,60,33,30.24,30.15,11,1,11,0.00
2013-5-15,69.8,54.5,37.2,42.8,30.5,17.1,83,48,15,30.24,30.15,14,1,15,0.00
2013-5-16,54.9,47.2,41.9,40.3,36.0,28.0,88,66,51,30.18,30.08,15,1,15,0.00
2013-5-17,59.0,48.1,37.2,36.1,33.0,27.9,84,58,35,30.29,30.14,11,1,11,0.00
2013-5-18,63.1,45.8,29.1,39.2,29.0,16.2,74,53,34,30.42,30.28,9,1,10,0.00
2013-5-19,63.3,47.4,33.4,42.6,32.5,21.2,87,59,29,30.44,30.36,19,3,20,0.00
2013-5-20,59.7,50.0,34.3,41.7,31.4,22.3,68,49,34,30.43,30.26,24,2,25,0.00
2013-5-21,64.2,54.6,42.1,37.4,26.7,13.8,65,36,18,30.27,29.98,18,2,21,0.00
2013-5-22,55.8,47.5,33.4,24.8,19.3,10.8,53,34,17,30.06,29.91,11,1,14,0.00
2013-5-23,56.1,42.8,28.2,32.4,22.4,12.6,64,46,25,30.32,30.05,12,1,12,0.00
2013-5-24,64.8,45.8,28.2,38.5,27.2,17.6,73,51,20,30.30,30.19,12,2,14,0.00
2013-5-25,63.7,49.4,33.4,35.8,29.0,14.2,69,47,19,30.23,30.15,13,1,13,0.00
2013-5-26,61.9,50.1,36.1,36.1,30.8,26.2,71,50,30,30.29,30.21,13,1,15,0.00
2013-5-27,59.2,45.6,32.4,42.6,33.0,19.2,92,63,27,30.30,30.18,11,1,11,0.03
2013-5-28,54.9,48.6,42.6,44.1,40.4,36.0,94,74,53,30.20,30.11,15,2,15,0.10
2013-5-29,57.9,51.2,42.4,45.1,38.3,29.7,88,62,41,30.17,30.06,14,3,15,0.01
2013-5-30,67.5,49.4,32.2,45.3,35.9,23.9,84,62,31,30.33,30.16,13,2,14,0.00
2013-5-31,64.2,51.5,34.3,46.9,35.0,24.4,72,54,26,30.38,30.31,15,1,15,0.00
2013-6-1,74.8,55.7,38.1,51.1,37.4,27.3,67,52,25,30.37,30.15,10,1,10,0.00
2013-6-2,77.4,59.5,41.9,52.3,42.8,34.9,85,57,24,30.15,29.94,11,1,12,0.00
2013-6-3,78.3,59.4,44.1,54.5,42.4,31.1,81,56,24,30.10,30.01,13,1,15,0.00
2013-6-4,81.3,59.7,44.6,57.0,44.1,33.8,75,58,25,30.17,30.09,6,1,6,0.00
2013-6-5,82.8,61.1,45.5,55.6,45.5,31.8,76,58,27,30.24,30.13,8,1,9,0.00
2013-6-6,81.9,62.9,47.8,57.0,46.5,35.2,80,59,21,30.19,30.11,11,1,11,0.00
2013-6-7,79.9,62.2,46.9,57.2,46.4,34.7,74,58,20,30.21,30.10,5,1,5,0.00
2013-6-8,75.6,64.8,48.7,59.0,47.2,33.3,70,53,35,30.16,30.04,15,1,16,0.00
2013-6-9,74.3,63.5,52.3,58.1,48.5,35.6,78,59,30,30.09,29.94,20,1,21,0.02
2013-6-10,72.5,59.2,50.7,51.3,45.5,33.3,90,63,29,30.08,29.91,17,1,17,0.01
2013-6-11,74.1,62.4,49.1,41.4,36.3,29.1,61,40,25,30.14,30.06,18,1,18,0.00
2013-6-12,72.7,63.6,50.9,39.0,33.3,19.0,52,33,22,30.09,29.98,19,2,19,0.00
2013-6-13,69.1,57.0,42.8,32.4,17.3,-1.7,45,23,9,30.28,30.06,12,1,15,0.00
2013-6-14,64.8,51.6,36.9,42.8,31.9,21.7,64,47,33,30.27,30.17,17,2,19,0.00
2013-6-15,73.2,54.7,38.8,46.9,35.9,28.8,69,51,25,30.24,30.14,13,2,13,0.00
2013-6-16,72.7,55.3,36.9,47.1,35.9,23.0,66,49,29,30.34,30.24,12,2,12,0.00
2013-6-17,72.9,55.8,38.3,46.8,34.7,28.0,69,48,21,30.34,30.18,11,1,13,0.00
2013-6-18,67.5,56.0,43.5,34.9,28.3,22.5,58,36,23,30.18,29.98,17,1,17,0.00
2013-6-19,55.4,45.6,38.5,26.4,19.2,12.0,51,35,24,30.19,30.02,14,-5,16,0.00
2013-6-26,56.8,56.8,56.8,52.0,52.0,51.8,84,84,84,30.30,30.30,0,-999,0,0.00
2013-6-27,73.8,61.2,47.1,57.9,51.2,44.2,90,72,41,30.47,30.27,9,1,9,0.00
2013-6-28,78.3,64.3,51.1,67.8,53.8,43.3,90,71,32,30.37,30.18,8,1,9,0.07
2013-6-29,77.0,64.7,53.1,60.6,54.4,45.3,89,71,34,30.24,30.06,8,1,8,0.07
2013-6-30,87.1,67.1,52.5,60.6,53.0,46.9,82,63,28,30.17,30.05,13,1,13,0.00
2013-7-1,81.3,67.2,57.7,63.1,52.3,41.5,73,60,28,30.21,30.10,17,1,17,0.00
2013-7-2,79.7,69.3,59.9,60.3,52.5,41.4,76,57,27,30.22,30.14,11,1,15,0.00
2013-7-3,81.0,65.9,53.6,62.4,53.8,45.7,82,67,34,30.22,30.07,13,1,13,0.00
2013-7-4,85.6,68.4,55.8,63.0,55.5,49.5,81,65,34,30.12,29.91,13,1,13,0.00
2013-7-5,84.7,71.6,54.1,54.9,38.8,24.8,76,37,12,29.93,29.82,14,1,18,0.00
2013-7-6,82.8,66.5,48.7,53.1,37.0,27.7,64,36,18,29.97,29.88,11,1,12,0.00
2013-7-7,82.8,66.1,50.4,54.1,40.8,32.9,70,43,18,30.05,29.96,13,2,14,0.00
2013-7-8,83.5,67.3,50.4,54.7,36.7,26.1,74,37,13,30.21,30.05,10,1,10,0.00
2013-7-9,81.0,63.6,49.5,56.3,41.0,29.8,74,45,22,30.29,30.20,19,2,19,0.00
2013-7-10,82.8,65.1,45.3,56.7,37.7,31.5,75,40,18,30.29,30.13,11,1,15,0.00
2013-7-11,78.6,67.6,57.0,45.5,38.8,32.7,56,36,19,30.12,29.99,9,1,13,0.00
2013-7-12,79.2,61.6,45.1,51.6,38.1,27.7,61,43,19,30.16,30.05,16,2,16,0.00
2013-7-13,79.5,60.0,42.1,51.8,36.3,22.3,61,42,24,30.25,30.11,13,2,14,0.00
2013-7-14,74.7,61.3,46.4,59.5,45.0,33.3,80,56,32,30.27,30.07,20,3,20,0.00
2013-7-15,75.4,62.6,48.9,57.0,45.2,36.1,64,53,34,30.18,29.90,10,1,11,0.00
2013-7-16,78.8,66.4,51.6,43.9,39.5,33.3,62,40,20,30.14,29.97,11,1,11,0.00
2013-7-17,73.0,59.5,41.7,57.2,40.1,23.4,65,49,33,30.33,30.14,13,2,13,0.00
2013-7-18,77.4,63.3,47.5,61.7,47.3,36.7,68,57,30,30.33,30.11,10,1,10,0.00
2013-7-19,90.0,66.7,50.4,60.8,48.6,38.5,70,54,25,30.22,29.99,9,1,9,0.00
2013-7-20,90.7,68.1,52.3,62.2,47.5,34.3,64,49,18,30.11,29.91,9,1,9,0.00
2013-7-21,86.4,70.0,55.6,63.7,53.4,44.4,74,56,37,30.04,29.90,7,1,8,0.00
2013-7-22,80.8,67.9,55.6,61.2,49.1,39.9,70,52,31,30.18,30.01,14,1,15,0.00
2013-7-23,72.3,65.9,57.4,58.1,52.4,45.7,81,63,41,30.17,30.09,16,1,17,0.00
2013-7-24,74.7,65.2,52.3,62.1,52.3,45.7,79,64,50,30.20,30.11,12,3,12,0.00
2013-7-25,70.5,61.8,54.0,64.0,54.3,46.9,93,77,56,30.30,30.16,10,1,11,0.01
2013-7-26,80.1,64.9,52.0,63.0,54.7,49.6,92,71,44,30.35,30.21,12,1,13,0.01
2013-7-27,83.5,64.8,50.4,57.6,50.0,44.4,82,61,32,30.27,30.05,8,1,8,0.00
2013-7-28,81.0,64.5,48.7,55.2,45.3,37.9,70,52,28,30.10,29.97,13,2,13,0.00
2013-7-29,79.2,64.6,47.5,48.2,38.3,31.5,63,41,21,30.19,30.03,11,1,11,0.00
2013-7-30,78.3,65.1,49.1,51.1,41.3,34.7,69,44,23,30.25,30.18,19,1,20,0.00
2013-7-31,78.3,65.7,51.6,47.5,41.0,34.7,66,42,25,30.24,30.11,15,1,16,0.00
2013-8-1,73.4,61.1,46.6,37.4,29.7,18.5,67,35,13,30.19,30.12,10,1,11,0.00
2013-8-2,77.2,56.4,37.9,42.4,29.6,15.3,52,37,19,30.23,30.17,12,2,12,0.00
2013-8-3,75.0,58.9,43.7,52.9,39.8,30.7,63,50,28,30.23,30.13,18,3,18,0.00
2013-8-4,77.4,60.3,44.4,54.7,41.2,31.5,64,51,26,30.24,30.14,15,2,15,0.00
2013-8-5,78.8,60.8,44.8,54.9,38.9,25.3,61,45,24,30.25,30.13,13,2,14,0.00
2013-8-6,79.5,61.3,46.2,50.9,38.7,27.1,58,44,27,30.23,30.10,8,1,9,0.00
2013-8-7,73.9,63.2,55.2,47.8,40.3,34.3,60,44,27,30.20,30.10,17,2,18,0.00
2013-8-8,73.2,59.3,47.5,48.2,39.9,32.5,60,50,30,30.15,30.07,14,2,15,0.00
2013-8-9,74.1,58.8,47.8,48.9,39.9,32.2,68,51,24,30.16,30.05,18,2,18,0.00
2013-8-10,72.9,57.3,42.8,44.4,35.5,27.7,59,45,28,30.26,30.15,17,2,18,0.00
2013-8-11,76.1,57.0,41.0,48.7,36.9,26.1,60,48,29,30.28,30.17,17,2,18,0.00
2013-8-12,77.4,58.6,42.3,50.2,37.8,26.8,62,48,22,30.25,30.18,18,2,19,0.00
2013-8-13,78.3,59.0,42.4,50.2,37.4,26.4,63,46,24,30.30,30.19,18,2,18,0.00
2013-8-14,81.1,60.1,43.3,51.3,35.4,20.3,60,41,18,30.29,30.17,15,2,16,0.00
2013-8-15,81.0,61.8,43.9,52.7,31.5,18.9,65,35,11,30.25,30.17,15,1,16,0.00
2013-8-16,81.1,63.5,45.3,48.2,31.6,21.7,46,32,16,30.27,30.18,18,1,19,0.00
2013-8-17,76.5,62.3,48.6,57.9,44.9,32.9,72,53,36,30.24,30.09,11,2,12,0.00
2013-8-18,79.9,64.6,49.5,60.4,44.9,37.2,69,50,27,30.20,30.12,12,1,13,0.00
2013-8-19,73.8,66.0,59.0,60.1,49.4,39.6,72,55,31,30.18,30.09,12,1,12,0.00
2013-8-20,73.8,61.0,50.4,60.4,51.1,43.0,97,72,40,30.18,30.04,39,2,40,0.32
2013-8-21,66.6,59.0,49.8,58.8,52.9,47.7,94,81,58,30.21,30.16,9,1,10,0.47
2013-8-22,75.9,66.5,48.9,55.4,41.7,34.5,91,44,25,30.19,30.07,12,1,15,0.01
2013-8-23,74.5,59.5,43.9,45.0,39.1,34.7,73,50,25,30.13,30.03,10,1,10,0.00
2013-8-24,73.8,57.5,40.3,43.9,34.9,27.5,67,46,20,30.13,30.03,9,1,10,0.00
2013-8-25,71.8,58.1,44.8,43.3,39.6,32.7,74,52,32,30.17,30.10,15,1,15,0.00
2013-8-26,74.3,60.1,44.4,44.6,39.9,34.3,75,51,24,30.22,30.12,13,1,18,0.00
2013-8-27,71.6,57.2,44.6,55.2,42.4,32.2,69,58,37,30.16,30.08,9,1,9,0.00
2013-8-28,75.7,60.5,47.1,54.5,46.0,41.5,87,62,35,30.19,30.12,11,1,13,0.00
2013-8-29,78.1,63.3,48.0,45.9,41.2,34.5,79,49,22,30.27,30.18,10,1,12,0.00
2013-8-30,81.9,63.4,45.9,55.6,39.3,29.5,72,46,16,30.31,30.20,11,1,12,0.00
2013-8-31,79.2,62.6,48.6,58.3,43.3,35.1,73,51,28,30.25,30.11,12,1,13,0.00
2013-9-1,70.9,62.8,54.1,57.4,45.0,34.3,66,52,39,30.17,30.04,9,1,9,0.00
2013-9-2,73.6,65.5,59.4,52.7,49.6,45.9,72,57,41,30.10,30.00,13,0,13,0.00
2013-9-3,77.9,64.9,54.9,51.8,48.5,45.3,74,57,32,30.13,30.06,10,1,14,0.00
2013-9-4,77.4,63.7,51.3,53.4,47.2,44.1,77,57,34,30.17,30.09,10,1,11,0.00
2013-9-5,74.3,63.8,53.4,45.7,42.0,34.7,67,47,27,30.14,30.05,15,1,22,0.00
2013-9-6,74.8,61.4,47.8,51.4,43.0,37.4,68,52,29,30.18,30.11,18,3,18,0.00
2013-9-7,77.7,59.1,43.9,54.7,40.7,33.6,72,53,22,30.21,30.13,14,2,16,0.00
2013-9-8,72.0,57.9,42.4,56.3,40.2,26.8,70,52,40,30.24,30.10,12,2,12,0.00
2013-9-9,76.6,60.5,44.2,56.3,40.8,31.5,66,50,27,30.20,30.04,17,1,17,0.00
2013-9-10,72.7,60.4,45.5,56.5,41.3,29.8,66,50,35,30.14,30.00,10,1,11,0.00
2013-9-11,75.7,59.9,47.1,55.2,42.8,34.9,65,54,39,30.22,30.14,9,1,11,0.00
2013-9-12,70.7,59.2,47.3,55.8,46.1,36.5,96,63,41,30.19,30.08,29,2,30,0.16
2013-9-13,72.3,57.8,46.8,57.4,51.7,45.5,96,81,55,30.18,30.06,16,1,16,0.17
2013-9-14,70.3,58.8,46.2,58.6,49.0,41.9,85,71,47,30.12,29.99,8,1,8,0.00
2013-9-15,76.8,61.6,46.2,52.5,40.1,33.3,76,49,24,30.06,29.98,13,1,13,0.00
2013-9-16,77.2,62.7,50.4,43.7,37.5,32.9,59,41,24,30.06,29.95,14,1,14,0.00
2013-9-17,66.2,57.1,41.9,41.4,34.3,22.6,62,44,21,30.08,29.86,19,1,19,0.00
2013-9-18,62.4,46.7,32.4,43.9,30.0,18.0,65,53,34,30.31,30.08,13,2,13,0.00
2013-9-19,67.5,50.9,34.3,53.8,32.9,22.6,67,51,30,30.32,30.15,10,1,10,0.00
2013-9-20,70.9,54.8,38.5,39.0,29.4,22.8,56,40,19,30.19,29.97,16,1,16,0.00
2013-9-21,58.3,46.0,35.6,44.6,35.8,24.8,94,71,35,30.08,29.84,17,1,18,0.09
2013-9-22,59.4,44.0,32.5,43.0,35.9,28.2,94,75,44,30.33,30.07,13,1,14,0.09
2013-9-23,64.2,48.2,32.7,47.5,37.2,27.7,91,68,30,30.40,30.28,9,1,9,0.00
2013-9-24,64.2,54.3,44.8,37.2,28.8,16.2,60,38,25,30.30,29.95,18,2,28,0.00
2013-9-25,49.3,41.8,34.2,36.0,28.7,22.1,88,60,42,30.10,29.95,27,2,29,0.00
2013-9-26,44.4,38.4,31.1,30.6,26.6,22.1,82,63,43,30.40,30.09,25,7,25,0.00
2013-9-27,56.7,39.5,25.9,34.9,25.5,21.4,83,59,31,30.52,30.40,11,1,16,0.00
2013-9-28,65.5,48.0,32.7,42.3,29.5,21.7,74,51,30,30.51,30.37,9,1,12,0.00
2013-9-29,62.8,54.4,49.3,34.7,29.9,21.9,47,39,30,30.38,30.21,23,2,23,0.00
2013-9-30,61.2,53.6,48.9,38.7,33.6,24.3,62,47,32,30.25,30.17,13,1,13,0.00
2013-10-1,66.6,54.7,41.9,43.2,34.0,27.0,71,48,24,30.19,30.13,14,1,16,0.00
2013-10-2,61.2,46.9,34.3,36.7,23.9,16.3,64,43,19,30.25,30.15,11,1,11,0.00
2013-10-3,45.9,40.8,35.1,35.1,22.2,12.7,81,48,28,30.49,30.21,45,10,45,0.00
2013-10-4,48.7,40.6,30.6,29.3,20.9,12.6,67,46,26,30.67,30.48,42,11,42,0.00
2013-10-5,61.0,39.7,25.3,32.5,20.8,11.5,62,47,29,30.79,30.66,5,1,5,0.00
2013-10-6,61.9,44.2,28.4,45.7,27.0,14.0,64,51,34,30.69,30.45,8,1,8,0.00
2013-10-7,63.9,47.4,30.6,40.6,22.9,13.8,55,40,19,30.46,30.23,14,2,14,0.00
2013-10-8,56.7,46.7,32.4,33.6,22.3,12.2,50,38,26,30.23,29.93,13,2,13,0.00
2013-10-9,44.2,39.9,34.9,34.2,30.5,23.2,90,70,49,30.09,29.81,23,4,25,0.01
2013-10-10,54.3,41.0,29.7,35.4,30.8,26.1,88,69,41,30.34,30.08,12,1,13,0.00
2013-10-11,54.9,40.9,27.5,36.0,29.6,23.9,87,66,40,30.42,30.32,9,2,10,0.00
2013-10-12,58.1,41.8,28.8,33.8,27.0,19.0,74,57,27,30.36,30.19,14,1,14,0.00
2013-10-13,46.2,38.5,30.6,35.4,30.5,25.3,88,73,55,30.51,30.18,21,3,21,0.00
2013-10-14,50.9,37.4,25.3,37.0,27.2,21.0,86,68,47,30.61,30.50,21,2,22,0.00
2013-10-15,48.0,36.8,25.5,31.6,23.2,16.5,80,59,36,30.58,30.51,30,5,36,0.00
2013-10-16,56.7,40.0,24.6,42.1,25.3,12.7,67,56,41,30.62,30.49,9,2,9,0.00
2013-10-17,57.7,43.3,28.8,38.8,26.8,19.2,74,54,29,30.53,30.40,20,2,20,0.00
2013-10-18,54.0,41.4,27.7,41.4,26.4,16.5,64,55,40,30.54,30.43,6,2,6,0.00
2013-10-19,54.5,41.2,28.9,45.3,28.9,21.4,75,62,41,30.58,30.46,4,2,4,0.00
2013-10-20,57.7,43.0,29.8,46.0,30.4,20.1,80,61,46,30.53,30.36,12,2,12,0.00
2013-10-21,58.3,44.0,30.7,42.8,28.1,18.7,69,53,40,30.48,30.36,14,1,14,0.00
2013-10-22,55.2,42.9,31.1,45.7,28.0,19.9,75,56,40,30.52,30.37,5,1,5,0.00
2013-10-23,59.4,43.3,30.2,46.9,27.5,18.7,75,54,24,30.45,30.32,14,2,15,0.00
2013-10-24,55.4,42.6,30.0,42.1,26.0,17.8,64,52,38,30.53,30.38,5,1,5,0.00
2013-10-25,55.0,41.3,28.6,43.7,25.6,15.4,72,54,38,30.62,30.53,5,1,5,0.00
2013-10-26,55.9,41.8,30.0,42.3,25.1,15.1,66,51,36,30.65,30.50,6,1,7,0.00
2013-10-27,60.6,42.0,28.8,39.2,23.1,16.9,88,50,22,30.51,29.74,21,2,25,0.00
2013-10-28,38.7,32.7,28.4,31.1,28.5,26.4,94,85,72,30.14,29.72,11,0,11,0.01
2013-10-29,38.5,33.7,28.2,31.6,29.0,25.9,91,83,70,30.40,30.14,13,1,14,0.01
2013-10-30,45.7,33.8,21.0,36.1,27.2,17.4,93,78,52,30.57,30.39,10,-13,10,0.06
2013-10-31,50.7,38.2,25.3,39.4,30.6,22.5,91,75,54,30.63,30.53,5,-11,6,0.00
2013-11-1,50.5,38.9,25.3,41.2,31.6,21.0,86,75,63,30.64,30.49,6,-15,6,0.00
2013-11-2,57.9,44.9,25.7,31.6,25.6,20.1,81,50,27,30.50,30.15,15,-10,15,0.00
2013-11-3,43.9,39.5,32.7,32.0,27.4,17.1,79,62,51,30.21,30.11,24,-8,24,0.00
2013-11-4,38.8,34.2,25.9,23.9,19.1,14.4,66,54,42,30.53,30.20,32,-2,33,0.00
2013-11-5,46.2,35.8,23.7,31.6,21.9,13.3,74,58,35,30.71,30.51,6,-12,6,0.00
2013-11-6,49.8,40.1,25.7,38.5,30.9,19.4,79,70,56,30.74,30.62,7,-11,7,0.00
2013-11-7,58.8,46.6,32.7,30.0,21.3,14.0,81,41,19,30.63,30.40,15,-11,15,0.00
2013-11-8,59.2,48.0,34.5,28.2,22.9,15.6,62,39,25,30.40,30.22,13,-11,13,0.00
2013-11-9,52.9,41.1,29.7,41.7,30.0,19.8,77,65,50,30.48,30.30,5,-12,5,0.00
2013-11-10,51.1,40.4,27.1,40.6,26.9,14.0,73,59,42,30.56,30.45,6,-12,6,0.00
2013-11-11,54.3,42.2,27.7,40.8,26.7,11.5,69,54,40,30.63,30.52,6,-12,6,0.00
2013-11-12,60.4,48.1,34.7,41.7,27.3,16.2,68,46,27,30.66,30.55,7,-12,9,0.00
2013-11-13,55.0,43.3,29.8,43.3,30.8,23.4,84,63,37,30.60,30.52,24,-9,24,0.00
2013-11-14,58.3,42.7,27.1,39.4,27.8,19.6,80,58,26,30.54,30.10,12,-15,12,0.00
2013-11-15,41.7,36.6,31.8,32.2,28.5,25.3,84,73,57,30.10,29.99,19,-9,19,0.00
2013-11-16,48.9,40.1,31.3,31.3,27.6,21.4,80,63,37,30.20,30.01,13,-11,16,0.00
2013-11-17,50.2,38.2,25.5,39.2,28.7,19.2,80,69,56,30.46,30.20,7,-11,7,0.00
2013-11-18,49.5,40.4,25.0,37.8,29.9,16.7,81,67,48,30.46,30.30,14,-16,14,0.00
2013-11-19,48.0,42.2,37.6,37.2,34.7,30.4,88,75,60,30.31,30.19,14,-11,14,0.00
2013-11-20,44.6,37.8,33.4,38.1,34.7,31.5,96,89,74,30.19,30.08,9,-16,9,0.19
2013-11-21,35.2,26.8,22.8,33.3,22.9,16.0,96,85,66,30.68,30.15,38,1,41,0.19
2013-11-22,32.7,29.4,23.2,19.0,13.7,4.3,74,52,39,30.76,30.58,36,0,38,0.00
2013-11-23,36.5,34.2,28.4,19.0,13.1,5.9,53,42,31,30.59,30.48,34,2,35,0.00
2013-11-24,45.0,32.4,20.8,23.2,16.7,10.0,74,54,32,30.71,30.51,18,-11,18,0.00
2013-11-25,50.4,34.5,20.8,32.2,23.2,14.2,79,64,43,30.79,30.71,5,-12,5,0.00
2013-11-26,46.6,36.0,24.1,35.4,27.1,18.3,81,70,54,30.74,30.51,5,-12,5,0.00
2013-11-27,47.7,37.1,28.4,37.9,27.8,21.7,83,70,46,30.51,30.26,9,-12,9,0.00
2013-11-28,45.7,34.8,26.4,32.4,26.5,21.0,89,73,54,30.53,30.31,9,-11,9,0.00
2013-11-29,47.3,33.8,23.5,33.4,26.7,20.1,90,76,52,30.69,30.53,10,-12,11,0.00
2013-11-30,44.2,33.7,22.8,34.0,25.5,17.6,86,72,60,30.77,30.63,6,-12,7,0.00
2013-12-1,46.4,35.7,23.2,38.8,28.4,18.1,86,75,51,30.84,30.72,7,-16,7,0.00
2013-12-2,56.3,43.8,27.9,32.5,22.7,14.9,81,46,23,30.73,30.07,14,-10,15,0.00
2013-12-3,40.8,25.8,13.5,34.2,18.7,5.7,86,74,59,30.22,29.84,31,-8,34,0.00
2013-12-4,23.9,19.2,8.2,14.2,10.4,4.6,85,69,53,30.48,30.22,13,-8,14,0.00
2013-12-5,27.0,19.7,9.5,12.0,8.3,3.7,82,62,40,30.51,30.44,8,-12,8,0.00
2013-12-6,30.0,23.4,16.7,20.5,6.5,-13.4,93,54,18,30.51,30.12,13,-12,13,0.00
2013-12-7,24.1,17.0,6.6,20.5,11.6,2.3,93,80,59,30.58,30.09,10,-14,13,0.00
2013-12-8,28.2,11.6,-0.8,15.8,3.2,-6.0,85,70,44,30.93,30.58,17,-12,17,0.00
2013-12-9,36.5,18.6,0.3,21.2,10.1,-5.1,88,71,32,31.06,30.92,10,-12,11,0.00
2013-12-10,39.4,26.8,10.0,27.5,20.2,6.6,90,77,57,30.98,30.71,4,-12,5,0.09
2013-12-11,43.3,27.9,15.3,26.4,19.1,11.7,90,71,44,30.76,30.67,4,-16,4,0.01
2013-12-12,40.3,30.1,13.6,31.8,20.6,10.6,87,69,41,30.77,30.64,4,-12,5,0.00
2013-12-13,43.0,31.4,20.1,26.6,17.5,8.1,81,58,39,30.83,30.61,18,-9,19,0.00
2013-12-14,43.3,29.6,16.2,28.2,20.6,11.1,84,70,39,30.97,30.83,4,-16,4,0.00
2013-12-15,43.2,31.1,18.1,34.5,25.6,14.2,88,80,65,30.97,30.82,4,-12,4,0.00
2013-12-16,42.6,31.9,21.2,36.3,27.1,17.6,88,82,68,30.91,30.78,5,-12,5,0.00
2013-12-17,43.9,33.4,21.0,37.9,28.9,16.9,89,83,70,30.86,30.61,5,-16,5,0.00
2013-12-18,54.0,38.8,25.0,39.2,27.5,21.2,92,66,35,30.61,29.99,13,-12,14,0.00
2013-12-19,35.2,25.9,15.6,26.6,20.1,12.4,89,78,60,30.40,29.92,33,-5,33,0.00
2013-12-20,38.7,27.9,10.0,25.7,15.0,-3.6,88,62,22,30.53,30.40,16,-12,16,0.00
2013-12-21,42.4,34.9,24.6,32.7,25.6,18.5,84,69,47,30.53,30.39,21,-10,21,0.00
2013-12-22,45.7,34.8,21.6,33.6,26.9,15.6,92,74,54,30.79,30.53,24,-13,24,0.00
2013-12-23,41.9,32.7,23.5,36.7,28.7,20.8,92,85,71,30.87,30.77,4,-12,4,0.00
2013-12-24,46.8,31.9,22.8,36.0,26.7,19.6,89,81,65,30.90,30.79,9,-16,9,0.00
2013-12-25,46.6,30.8,19.9,31.6,23.4,16.3,89,74,56,30.92,30.79,4,-12,4,0.00
2013-12-26,43.5,30.3,18.3,32.5,22.7,11.8,83,73,56,30.90,30.80,4,-16,4,0.00
2013-12-27,40.8,31.2,18.3,34.5,24.7,12.6,86,77,62,30.88,30.63,4,-12,5,0.00
2013-12-28,44.6,32.2,21.2,23.5,18.3,10.6,84,59,25,30.73,30.58,28,-6,28,0.00
2013-12-29,46.8,31.2,18.3,27.0,19.8,12.4,81,64,38,30.76,30.66,4,-12,4,0.00
2013-12-30,43.5,34.7,19.9,34.3,24.8,14.2,82,68,44,30.78,30.67,5,-16,5,0.00
2013-12-31,46.9,35.8,26.4,36.9,23.4,11.1,79,62,25,30.69,30.55,4,-12,4,0.00
2014-1-1,42.3,32.8,23.2,32.5,25.2,15.8,87,74,58,30.72,30.62,4,-12,4,0.00
2014-1-2,43.2,33.3,23.0,36.1,28.6,18.9,88,83,73,30.70,30.57,4,-12,4,0.00